Time;durP1;ratioP1;P1;durP2;ratioP2;P2;SDS_P1;SDS_P2;PMS_P1;PMS_P2;Temp;Humidity;BMP_temperature;BMP_pressure;BME280_temperature;BME280_humidity;BME280_pressure;Samples;Min_cycle;Max_cycle;Signal;HPM_P1;HPM_P2
2023/07/08 00:00:50;;;;;;;3.15;2.38;;;26.70;48.60;;;;;;4976022;28;92659;-91
2023/07/08 00:03:16;;;;;;;3.25;2.60;;;26.70;48.50;;;;;;4965267;28;94395;-90
2023/07/08 00:05:41;;;;;;;4.22;3.05;;;26.70;48.40;;;;;;4963473;28;95619;-90
2023/07/08 00:08:13;;;;;;;2.35;2.10;;;26.70;48.40;;;;;;4967440;28;93100;-89
2023/07/08 00:10:39;;;;;;;4.97;2.70;;;26.70;48.60;;;;;;4966129;28;91550;-90
2023/07/08 00:13:04;;;;;;;2.75;2.50;;;26.70;48.70;;;;;;4963751;28;95763;-90
2023/07/08 00:15:32;;;;;;;3.38;2.63;;;26.70;48.50;;;;;;4967762;28;92775;-91
2023/07/08 00:17:58;;;;;;;3.75;2.40;;;26.70;48.40;;;;;;4964792;28;93190;-89
2023/07/08 00:20:38;;;;;;;2.78;2.40;;;26.70;48.40;;;;;;4966199;28;92604;-91
2023/07/08 00:23:04;;;;;;;3.80;2.65;;;26.70;48.60;;;;;;4970363;28;95619;-91
2023/07/08 00:25:31;;;;;;;2.95;2.35;;;26.60;48.60;;;;;;4974321;28;95764;-91
2023/07/08 00:27:57;;;;;;;2.75;2.35;;;26.60;48.70;;;;;;4979909;28;92167;-91
2023/07/08 00:30:30;;;;;;;3.13;2.55;;;26.60;48.50;;;;;;4977517;28;92475;-90
2023/07/08 00:32:58;;;;;;;4.38;2.83;;;26.60;48.50;;;;;;4974143;28;95990;-90
2023/07/08 00:35:43;;;;;;;2.72;2.17;;;26.60;48.50;;;;;;4974342;28;92252;-89
2023/07/08 00:38:26;;;;;;;3.42;2.72;;;26.60;48.50;;;;;;4992406;28;92582;-90
2023/07/08 00:41:04;;;;;;;3.33;2.42;;;26.60;48.40;;;;;;4974323;28;93104;-92
2023/07/08 00:43:40;;;;;;;4.38;2.50;;;26.60;48.60;;;;;;4977236;28;96630;-91
2023/07/08 00:46:32;;;;;;;3.47;2.50;;;26.60;48.70;;;;;;4976223;28;95076;-90
2023/07/08 00:49:03;;;;;;;3.38;2.28;;;26.60;48.70;;;;;;4976480;28;92705;-91
2023/07/08 00:51:29;;;;;;;3.22;2.50;;;26.60;48.40;;;;;;4977305;28;92696;-91
2023/07/08 00:53:54;;;;;;;5.32;2.50;;;26.60;48.50;;;;;;4977479;28;92970;-91
2023/07/08 00:56:27;;;;;;;3.08;2.75;;;26.60;48.50;;;;;;4976414;28;95256;-91
2023/07/08 00:59:01;;;;;;;2.85;2.47;;;26.60;48.40;;;;;;4972952;28;92782;-91
2023/07/08 01:01:29;;;;;;;2.95;2.30;;;26.60;48.70;;;;;;4963676;28;91607;-90
2023/07/08 01:04:02;;;;;;;3.55;2.38;;;26.60;48.40;;;;;;4957022;28;92818;-91
2023/07/08 01:06:32;;;;;;;2.75;2.47;;;26.50;48.40;;;;;;4971020;28;95124;-92
2023/07/08 01:09:02;;;;;;;3.80;2.55;;;26.60;48.40;;;;;;4961494;28;93735;-91
2023/07/08 01:11:29;;;;;;;2.53;2.28;;;26.50;48.40;;;;;;4963787;28;92725;-91
2023/07/08 01:13:55;;;;;;;2.75;2.30;;;26.60;48.50;;;;;;4962398;28;93041;-89
2023/07/08 01:16:22;;;;;;;2.78;2.22;;;26.60;48.50;;;;;;4962841;28;92804;-90
2023/07/08 01:18:52;;;;;;;2.40;2.20;;;26.60;48.40;;;;;;4963320;28;92790;-91
2023/07/08 01:21:39;;;;;;;3.45;2.20;;;26.60;48.40;;;;;;4964465;28;92586;-91
2023/07/08 01:24:07;;;;;;;2.88;2.53;;;26.60;48.50;;;;;;4961797;28;96833;-90
2023/07/08 01:26:36;;;;;;;2.67;2.28;;;26.60;48.40;;;;;;4964939;28;92419;-91
2023/07/08 01:29:03;;;;;;;2.67;2.17;;;26.60;48.40;;;;;;4963732;28;92747;-90
2023/07/08 01:31:29;;;;;;;2.40;2.00;;;26.60;48.50;;;;;;4962489;28;92774;-91
2023/07/08 01:33:55;;;;;;;3.30;2.55;;;26.50;48.50;;;;;;4968290;28;96311;-91
2023/07/08 01:36:21;;;;;;;2.28;2.05;;;26.50;48.40;;;;;;4959835;28;92713;-90
2023/07/08 01:38:47;;;;;;;2.95;2.25;;;26.50;48.70;;;;;;4961484;28;92302;-91
2023/07/08 01:41:16;;;;;;;2.50;2.15;;;26.50;48.70;;;;;;4964377;28;92669;-91
2023/07/08 01:43:42;;;;;;;3.22;2.33;;;26.50;48.60;;;;;;4953169;28;93319;-90
2023/07/08 01:46:20;;;;;;;2.63;2.17;;;26.50;48.40;;;;;;4950714;28;95006;-90
2023/07/08 01:48:51;;;;;;;2.95;2.47;;;26.50;48.30;;;;;;4957336;28;93227;-91
2023/07/08 01:51:17;;;;;;;4.22;2.53;;;26.50;48.30;;;;;;4958122;28;91600;-90
2023/07/08 01:53:44;;;;;;;3.35;2.65;;;26.50;48.20;;;;;;4974617;28;93060;-91
2023/07/08 01:56:11;;;;;;;3.42;2.88;;;26.50;48.20;;;;;;4967980;28;95569;-91
2023/07/08 01:58:37;;;;;;;2.53;2.33;;;26.50;48.20;;;;;;4966146;28;93349;-89
2023/07/08 02:01:03;;;;;;;3.33;2.40;;;26.50;48.20;;;;;;4965178;28;92690;-91
2023/07/08 02:03:29;;;;;;;3.20;2.22;;;26.50;48.20;;;;;;4966983;28;92777;-91
2023/07/08 02:05:55;;;;;;;2.58;2.35;;;26.50;48.10;;;;;;4964610;28;94203;-90
2023/07/08 02:08:22;;;;;;;2.63;2.20;;;26.40;48.00;;;;;;4965735;28;93047;-92
2023/07/08 02:10:52;;;;;;;2.60;2.38;;;26.40;48.00;;;;;;4964413;28;93164;-90
2023/07/08 02:13:19;;;;;;;3.13;2.45;;;26.40;48.10;;;;;;4964627;28;95244;-91
2023/07/08 02:15:45;;;;;;;2.78;2.30;;;26.40;48.00;;;;;;4973085;28;95939;-91
2023/07/08 02:18:11;;;;;;;2.50;2.22;;;26.40;48.00;;;;;;4965457;28;93288;-90
2023/07/08 02:20:36;;;;;;;2.42;2.17;;;26.40;48.10;;;;;;4965273;28;92860;-91
2023/07/08 02:23:02;;;;;;;3.35;2.50;;;26.40;48.10;;;;;;4967393;28;93691;-90
2023/07/08 02:25:28;;;;;;;2.50;2.30;;;26.40;48.00;;;;;;4960061;28;95989;-92
2023/07/08 02:27:57;;;;;;;2.28;2.03;;;26.40;48.00;;;;;;4957284;28;92061;-90
2023/07/08 02:30:23;;;;;;;;;;;26.40;48.00;;;;;;4967962;28;92539;-90
2023/07/08 02:32:56;;;;;;;2.42;2.20;;;26.40;48.10;;;;;;4967868;28;93067;-91
2023/07/08 02:35:26;;;;;;;2.50;2.30;;;26.40;48.00;;;;;;4965994;28;92612;-90
2023/07/08 02:37:53;;;;;;;2.72;2.30;;;26.40;48.10;;;;;;4964746;28;92940;-91
2023/07/08 02:40:19;;;;;;;2.55;2.35;;;26.40;47.90;;;;;;4965275;28;91706;-90
2023/07/08 02:42:44;;;;;;;3.20;2.40;;;26.40;47.90;;;;;;4965949;28;92863;-90
2023/07/08 02:45:11;;;;;;;4.07;2.33;;;26.40;48.00;;;;;;4972662;28;94074;-90
2023/07/08 02:47:37;;;;;;;2.35;2.15;;;26.40;48.00;;;;;;4964721;28;93094;-91
2023/07/08 02:50:04;;;;;;;2.75;2.53;;;26.40;48.00;;;;;;4962788;28;92785;-90
2023/07/08 02:52:30;;;;;;;3.08;2.53;;;26.40;48.00;;;;;;4964363;28;95543;-90
2023/07/08 02:54:55;;;;;;;2.58;2.05;;;26.40;47.90;;;;;;4965025;28;92840;-90
2023/07/08 02:57:21;;;;;;;2.55;2.20;;;26.40;48.00;;;;;;4965715;28;92739;-89
2023/07/08 02:59:47;;;;;;;3.22;2.75;;;26.40;47.90;;;;;;4963370;28;93115;-91
2023/07/08 03:02:12;;;;;;;4.80;2.38;;;26.40;48.60;;;;;;4958591;28;92773;-89
2023/07/08 03:04:39;;;;;;;3.40;2.20;;;26.40;47.90;;;;;;4964820;28;92333;-91
2023/07/08 03:07:06;;;;;;;2.30;2.10;;;26.40;47.90;;;;;;4974496;28;92319;-90
2023/07/08 03:09:32;;;;;;;3.03;2.00;;;26.40;47.90;;;;;;4966036;28;92485;-89
2023/07/08 03:11:58;;;;;;;2.40;2.20;;;26.40;47.90;;;;;;4962015;28;93997;-91
2023/07/08 03:14:24;;;;;;;3.45;2.50;;;26.40;48.00;;;;;;4971158;28;95393;-90
2023/07/08 03:16:50;;;;;;;2.40;2.20;;;26.30;47.80;;;;;;4963080;28;92651;-89
2023/07/08 03:19:16;;;;;;;3.33;2.50;;;26.30;47.90;;;;;;4976791;28;94028;-91
2023/07/08 03:21:42;;;;;;;2.75;2.35;;;26.40;48.00;;;;;;4976789;28;94672;-89
2023/07/08 03:24:11;;;;;;;2.30;2.10;;;26.30;47.80;;;;;;4974860;28;93685;-91
2023/07/08 03:26:37;;;;;;;3.22;2.40;;;26.30;48.00;;;;;;4974277;28;92475;-90
2023/07/08 03:29:04;;;;;;;3.88;2.38;;;26.30;48.00;;;;;;4974671;28;91813;-90
2023/07/08 03:31:30;;;;;;;2.97;2.53;;;26.30;47.80;;;;;;4975822;28;92991;-90
2023/07/08 03:33:55;;;;;;;3.78;2.40;;;26.30;47.90;;;;;;4971058;28;95162;-91
2023/07/08 03:36:24;;;;;;;2.65;2.20;;;26.30;47.80;;;;;;4978816;28;92962;-90
2023/07/08 03:38:51;;;;;;;3.40;2.67;;;26.30;48.00;;;;;;4976643;28;92741;-90
2023/07/08 03:41:17;;;;;;;2.33;2.10;;;26.30;47.90;;;;;;4976371;28;92774;-91
2023/07/08 03:43:43;;;;;;;2.60;2.30;;;26.30;48.00;;;;;;4973895;28;95498;-91
2023/07/08 03:46:12;;;;;;;3.15;2.10;;;26.30;48.00;;;;;;4974007;28;92840;-91
2023/07/08 03:48:39;;;;;;;2.65;2.45;;;26.30;48.00;;;;;;4975744;28;92176;-90
2023/07/08 03:51:16;;;;;;;2.85;2.13;;;26.30;48.00;;;;;;4975021;28;92778;-89
2023/07/08 03:53:42;;;;;;;2.42;2.10;;;26.30;47.90;;;;;;4973777;28;93408;-91
2023/07/08 03:56:12;;;;;;;2.47;2.28;;;26.30;47.80;;;;;;4973845;28;92303;-90
2023/07/08 03:58:37;;;;;;;2.63;2.33;;;26.30;47.90;;;;;;4976544;28;92193;-92
2023/07/08 04:01:03;;;;;;;2.53;2.30;;;26.30;48.00;;;;;;4974319;28;94016;-92
2023/07/08 04:03:29;;;;;;;3.47;2.67;;;26.30;48.00;;;;;;4974405;28;95884;-90
2023/07/08 04:05:55;;;;;;;2.40;2.15;;;26.30;47.80;;;;;;4975295;28;92105;-91
2023/07/08 04:08:21;;;;;;;2.88;2.60;;;26.30;47.90;;;;;;4975351;28;92505;-90
2023/07/08 04:10:47;;;;;;;2.42;2.22;;;26.30;48.10;;;;;;4974074;28;95698;-92
2023/07/08 04:13:12;;;;;;;3.13;2.42;;;26.30;48.30;;;;;;4974970;28;92772;-91
2023/07/08 04:15:38;;;;;;;4.60;2.55;;;26.30;48.20;;;;;;4976359;28;92798;-90
2023/07/08 04:18:04;;;;;;;2.58;2.35;;;26.30;48.10;;;;;;4974383;28;91517;-91
2023/07/08 04:20:29;;;;;;;2.95;2.60;;;26.30;48.10;;;;;;4972463;28;95359;-90
2023/07/08 04:22:55;;;;;;;3.00;2.10;;;26.30;48.20;;;;;;4972361;28;92817;-90
2023/07/08 04:25:21;;;;;;;2.38;2.10;;;26.30;47.90;;;;;;4973792;28;94043;-91
2023/07/08 04:27:47;;;;;;;2.58;2.38;;;26.30;47.90;;;;;;4975101;28;92618;-89
2023/07/08 04:30:24;;;;;;;2.42;2.22;;;26.30;47.90;;;;;;4974103;28;95693;-90
2023/07/08 04:32:51;;;;;;;2.63;2.08;;;26.30;47.80;;;;;;4972826;28;92536;-89
2023/07/08 04:35:17;;;;;;;2.65;2.45;;;26.40;47.90;;;;;;4973792;28;92102;-90
2023/07/08 04:37:43;;;;;;;3.55;2.20;;;26.30;47.90;;;;;;4964081;28;92105;-91
2023/07/08 04:40:18;;;;;;;2.30;2.10;;;26.40;48.00;;;;;;4959181;28;96120;-91
2023/07/08 04:42:47;;;;;;;2.40;2.10;;;26.40;47.80;;;;;;4975236;28;95309;-92
2023/07/08 04:45:13;;;;;;;2.33;2.13;;;26.40;47.90;;;;;;4962158;28;92116;-90
2023/07/08 04:47:39;;;;;;;2.60;2.40;;;26.40;47.80;;;;;;4963088;28;92998;-91
2023/07/08 04:50:05;;;;;;;2.47;2.13;;;26.40;47.80;;;;;;4958653;28;94881;-91
2023/07/08 04:52:31;;;;;;;2.63;2.22;;;26.40;47.90;;;;;;4963070;28;94709;-90
2023/07/08 04:54:56;;;;;;;2.13;1.85;;;26.50;47.80;;;;;;4973253;28;92678;-91
2023/07/08 04:57:22;;;;;;;2.97;2.30;;;26.40;47.80;;;;;;4962723;28;92790;-91
2023/07/08 04:59:48;;;;;;;3.67;2.58;;;26.50;47.90;;;;;;4960595;28;95507;-89
2023/07/08 05:02:14;;;;;;;2.38;2.15;;;26.50;47.60;;;;;;4963544;28;93213;-91
2023/07/08 05:04:39;;;;;;;2.67;2.33;;;26.60;47.70;;;;;;4961506;28;92877;-89
2023/07/08 05:07:05;;;;;;;3.03;2.42;;;26.60;47.60;;;;;;4961669;28;91671;-90
2023/07/08 05:09:31;;;;;;;2.47;2.28;;;26.60;47.70;;;;;;4955653;28;94674;-90
2023/07/08 05:11:57;;;;;;;2.30;1.77;;;26.60;47.70;;;;;;4974116;28;92930;-91
2023/07/08 05:14:23;;;;;;;2.55;2.30;;;26.60;47.70;;;;;;4965625;28;93578;-91
2023/07/08 05:16:48;;;;;;;3.40;2.30;;;26.70;47.70;;;;;;4960957;28;92399;-91
2023/07/08 05:19:14;;;;;;;3.30;2.33;;;26.70;47.70;;;;;;4958954;28;95528;-90
2023/07/08 05:21:40;;;;;;;3.00;2.40;;;26.70;47.60;;;;;;4970451;28;95364;-90
2023/07/08 05:24:06;;;;;;;2.47;2.28;;;26.70;47.60;;;;;;4972827;28;92549;-92
2023/07/08 05:26:32;;;;;;;2.83;2.40;;;26.60;47.60;;;;;;4962652;28;93345;-91
2023/07/08 05:28:57;;;;;;;2.63;2.42;;;26.70;47.60;;;;;;4961648;28;94790;-91
2023/07/08 05:31:23;;;;;;;2.42;2.20;;;26.70;47.70;;;;;;4962847;28;95376;-91
2023/07/08 05:33:50;;;;;;;2.65;2.30;;;26.70;47.60;;;;;;4960941;28;92860;-91
2023/07/08 05:36:16;;;;;;;2.50;2.30;;;26.70;47.40;;;;;;4965690;28;92974;-91
2023/07/08 05:38:42;;;;;;;2.47;2.28;;;26.70;47.50;;;;;;4954736;28;94399;-91
2023/07/08 05:41:07;;;;;;;2.35;2.13;;;26.80;47.60;;;;;;4958227;28;94177;-92
2023/07/08 05:43:33;;;;;;;2.50;2.25;;;26.80;47.90;;;;;;4961515;28;92660;-92
2023/07/08 05:46:00;;;;;;;2.42;1.95;;;26.80;47.80;;;;;;4966355;28;92757;-90
2023/07/08 05:48:26;;;;;;;2.92;2.20;;;26.80;47.60;;;;;;4965562;28;94392;-91
2023/07/08 05:50:51;;;;;;;2.58;2.35;;;26.80;47.70;;;;;;4967455;28;92299;-91
2023/07/08 05:53:20;;;;;;;2.58;2.22;;;26.80;47.70;;;;;;4965721;28;92833;-91
2023/07/08 05:55:46;;;;;;;2.08;1.90;;;26.80;47.40;;;;;;4967631;28;91730;-92
2023/07/08 05:58:15;;;;;;;2.25;2.05;;;26.80;47.50;;;;;;4965256;28;94046;-92
2023/07/08 06:00:42;;;;;;;2.40;2.20;;;26.80;47.60;;;;;;4965780;28;93925;-92
2023/07/08 06:03:07;;;;;;;2.33;2.10;;;26.80;47.50;;;;;;4966491;28;93094;-91
2023/07/08 06:05:33;;;;;;;2.00;1.80;;;26.90;47.50;;;;;;4964357;28;92275;-91
2023/07/08 06:08:00;;;;;;;2.20;2.00;;;26.90;47.50;;;;;;4964740;28;96019;-89
2023/07/08 06:10:26;;;;;;;3.90;2.92;;;26.90;47.50;;;;;;4963189;28;94754;-89
2023/07/08 06:12:52;;;;;;;5.72;2.90;;;26.80;47.00;;;;;;4962754;28;91997;-87
2023/07/08 06:15:17;;;;;;;6.28;3.90;;;26.90;46.70;;;;;;4964449;28;92715;-89
2023/07/08 06:17:43;;;;;;;5.85;4.22;;;26.90;46.30;;;;;;4966029;28;93375;-90
2023/07/08 06:20:09;;;;;;;9.48;5.57;;;26.90;46.60;;;;;;4965842;28;94738;-90
2023/07/08 06:22:34;;;;;;;11.95;7.22;;;26.80;46.90;;;;;;4965266;28;92412;-90
2023/07/08 06:25:00;;;;;;;15.65;11.05;;;26.80;47.10;;;;;;4962223;28;92519;-88
2023/07/08 06:27:26;;;;;;;16.35;13.50;;;26.80;46.40;;;;;;4955077;28;94083;-93
2023/07/08 06:29:52;;;;;;;17.48;13.52;;;27.00;45.80;;;;;;4971817;28;96172;-89
2023/07/08 06:32:18;;;;;;;16.98;12.75;;;27.00;45.70;;;;;;4963746;28;93108;-88
2023/07/08 06:34:44;;;;;;;19.23;13.48;;;26.80;46.20;;;;;;4959017;28;92856;-88
2023/07/08 06:37:09;;;;;;;19.50;13.48;;;26.90;46.20;;;;;;4960546;28;92673;-87
2023/07/08 06:39:35;;;;;;;19.67;13.27;;;26.90;46.10;;;;;;4959951;28;95268;-89
2023/07/08 06:42:01;;;;;;;16.58;11.45;;;26.90;46.10;;;;;;4970092;28;92911;-87
2023/07/08 06:44:26;;;;;;;15.43;11.23;;;26.90;46.30;;;;;;4962969;28;91781;-90
2023/07/08 06:46:52;;;;;;;14.25;10.50;;;26.90;46.60;;;;;;4960930;28;92590;-88
2023/07/08 06:49:18;;;;;;;16.17;10.15;;;26.90;46.50;;;;;;4959274;28;95206;-89
2023/07/08 06:51:45;;;;;;;12.80;9.00;;;27.00;46.90;;;;;;4962933;28;93984;-88
2023/07/08 06:54:11;;;;;;;15.35;8.75;;;27.00;47.10;;;;;;4963616;28;92671;-88
2023/07/08 06:56:41;;;;;;;16.23;8.65;;;26.90;47.20;;;;;;4962742;28;92878;-91
2023/07/08 06:59:08;;;;;;;9.90;7.68;;;26.90;47.00;;;;;;4963532;28;92893;-89
2023/07/08 07:01:34;;;;;;;10.88;7.38;;;27.00;47.10;;;;;;4962453;28;92846;-89
2023/07/08 07:04:00;;;;;;;10.27;7.85;;;27.00;46.90;;;;;;4960444;28;92713;-90
2023/07/08 07:06:26;;;;;;;9.48;7.20;;;27.00;47.10;;;;;;4961994;28;94684;-90
2023/07/08 07:08:51;;;;;;;12.48;6.85;;;27.00;46.70;;;;;;4964662;28;92882;-88
2023/07/08 07:11:19;;;;;;;12.43;7.53;;;27.10;46.90;;;;;;4963495;28;92348;-92
2023/07/08 07:13:44;;;;;;;25.73;8.95;;;27.10;46.80;;;;;;4962707;28;93179;-90
2023/07/08 07:16:10;;;;;;;123.65;27.15;;;27.10;46.90;;;;;;4963632;28;94489;-95
2023/07/08 07:18:35;;;;;;;137.13;34.85;;;27.10;46.90;;;;;;4965032;28;96313;-90
2023/07/08 07:21:01;;;;;;;121.32;33.67;;;27.10;47.00;;;;;;4950823;28;92545;-92
2023/07/08 07:23:27;;;;;;;129.40;33.28;;;27.10;47.00;;;;;;4965098;28;92031;-91
2023/07/08 07:25:52;;;;;;;114.00;31.35;;;27.00;47.30;;;;;;4952445;28;93225;-89
2023/07/08 07:28:18;;;;;;;109.93;30.05;;;27.00;47.60;;;;;;4943142;28;93009;-87
2023/07/08 07:30:45;;;;;;;95.75;29.83;;;27.00;47.50;;;;;;4947983;28;92988;-91
2023/07/08 07:33:11;;;;;;;95.93;28.08;;;27.00;47.50;;;;;;4970287;28;93012;-89
2023/07/08 07:35:43;;;;;;;94.47;27.90;;;27.10;47.40;;;;;;4969239;28;92984;-87
2023/07/08 07:38:08;;;;;;;95.68;28.95;;;27.10;47.50;;;;;;4964972;28;95334;-88
2023/07/08 07:40:34;;;;;;;86.05;25.90;;;27.10;47.70;;;;;;4969340;28;93796;-88
2023/07/08 07:42:59;;;;;;;83.90;26.50;;;27.00;47.50;;;;;;4968223;28;93066;-87
2023/07/08 07:45:25;;;;;;;85.25;26.67;;;27.00;47.60;;;;;;4970918;28;93332;-92
2023/07/08 07:47:51;;;;;;;81.40;26.70;;;26.80;48.00;;;;;;4975876;28;93938;-88
2023/07/08 07:50:16;;;;;;;77.47;26.58;;;26.90;48.20;;;;;;4970263;28;94331;-89
2023/07/08 07:52:42;;;;;;;73.57;25.13;;;26.90;48.40;;;;;;4974117;28;92438;-90
2023/07/08 07:55:08;;;;;;;79.28;26.02;;;26.90;48.40;;;;;;4974454;28;92838;-89
2023/07/08 07:57:33;;;;;;;78.03;26.58;;;26.80;48.50;;;;;;4974796;28;92982;-89
2023/07/08 07:59:59;;;;;;;72.00;24.58;;;26.90;48.50;;;;;;4975026;28;92642;-90
2023/07/08 08:02:25;;;;;;;69.97;23.25;;;26.90;48.60;;;;;;4957424;28;93217;-90
2023/07/08 08:04:50;;;;;;;66.75;24.45;;;26.90;48.30;;;;;;4965097;28;94438;-90
2023/07/08 08:07:16;;;;;;;75.72;24.40;;;26.90;48.50;;;;;;4971805;28;93991;-88
2023/07/08 08:09:42;;;;;;;66.05;23.50;;;26.90;48.40;;;;;;4961587;28;92511;-88
2023/07/08 08:12:10;;;;;;;71.30;24.55;;;26.90;48.50;;;;;;4963332;28;92355;-91
2023/07/08 08:14:36;;;;;;;;;;;26.90;48.40;;;;;;4963417;28;92784;-89
2023/07/08 08:17:02;;;;;;;66.35;23.10;;;26.90;48.40;;;;;;4964199;28;92479;-90
2023/07/08 08:19:27;;;;;;;66.60;23.35;;;26.90;48.40;;;;;;4962709;28;92384;-88
2023/07/08 08:21:53;;;;;;;68.57;24.52;;;26.90;48.60;;;;;;4964451;28;91571;-91
2023/07/08 08:24:19;;;;;;;58.75;21.65;;;27.00;48.50;;;;;;4963314;28;95342;-90
2023/07/08 08:26:45;;;;;;;65.07;22.92;;;27.00;48.40;;;;;;4963550;28;95500;-92
2023/07/08 08:29:10;;;;;;;60.17;21.50;;;27.00;48.60;;;;;;4964070;28;93851;-91
2023/07/08 08:31:36;;;;;;;57.50;21.40;;;27.00;48.50;;;;;;4958615;28;93321;-90
2023/07/08 08:34:02;;;;;;;54.47;21.48;;;27.00;48.40;;;;;;4959883;28;95654;-91
2023/07/08 08:36:27;;;;;;;53.67;21.20;;;27.00;48.80;;;;;;4973738;28;95110;-88
2023/07/08 08:38:53;;;;;;;57.85;22.17;;;26.90;48.60;;;;;;4963971;28;92211;-91
2023/07/08 08:41:29;;;;;;;56.17;22.38;;;27.00;48.50;;;;;;4963660;28;92887;-92
2023/07/08 08:43:55;;;;;;;54.97;20.33;;;27.00;48.40;;;;;;4960977;28;93760;-89
2023/07/08 08:46:43;;;;;;;55.92;21.65;;;27.10;48.20;;;;;;4963281;28;92544;-87
2023/07/08 08:49:21;;;;;;;60.83;21.00;;;27.20;48.80;;;;;;4963386;28;92826;-92
2023/07/08 08:51:48;;;;;;;55.97;20.00;;;27.20;48.60;;;;;;4963443;28;92627;-92
2023/07/08 08:54:13;;;;;;;56.58;20.85;;;27.10;48.90;;;;;;4953952;28;95522;-87
2023/07/08 08:57:25;;;;;;;83.45;19.83;;;27.20;48.90;;;;;;4968113;28;96610;-94
2023/07/08 08:59:55;;;;;;;47.45;18.67;;;27.40;51.90;;;;;;4965844;28;92983;-89
2023/07/08 09:02:36;;;;;;;51.20;19.92;;;27.50;49.30;;;;;;4962679;28;92742;-91
2023/07/08 09:05:07;;;;;;;45.58;19.83;;;27.50;49.20;;;;;;4960763;28;93708;-89
2023/07/08 09:07:41;;;;;;;39.88;17.65;;;27.50;49.40;;;;;;4950646;28;96557;-92
2023/07/08 09:10:20;;;;;;;44.95;17.92;;;27.60;49.00;;;;;;4958707;28;92357;-93
2023/07/08 09:12:48;;;;;;;40.92;17.05;;;27.80;49.20;;;;;;4961601;28;92297;-89
2023/07/08 09:15:15;;;;;;;33.50;15.47;;;27.90;48.80;;;;;;4961288;28;95668;-91
2023/07/08 09:17:44;;;;;;;40.97;16.70;;;28.10;49.00;;;;;;4961390;28;94103;-92
2023/07/08 09:20:28;;;;;;;;;;;28.10;48.70;;;;;;4965093;28;93767;-90
2023/07/08 09:22:59;;;;;;;42.10;17.52;;;28.10;49.30;;;;;;4966865;28;92522;-90
2023/07/08 09:25:29;;;;;;;50.33;18.85;;;27.90;49.70;;;;;;4952666;28;95310;-87
2023/07/08 09:27:55;;;;;;;54.92;18.40;;;27.80;50.00;;;;;;4952362;28;93335;-91
2023/07/08 09:30:22;;;;;;;46.85;18.65;;;27.90;50.10;;;;;;4969696;28;92346;-94
2023/07/08 09:32:49;;;;;;;50.92;20.30;;;27.90;50.10;;;;;;4973414;28;92457;-92
2023/07/08 09:35:48;;;;;;;46.28;18.67;;;27.80;50.80;;;;;;4971749;28;94242;-93
2023/07/08 09:38:20;;;;;;;45.97;19.83;;;27.80;50.90;;;;;;4968940;28;94793;-93
2023/07/08 09:40:54;;;;;;;53.97;21.35;;;27.80;50.40;;;;;;4990163;28;93419;-95
2023/07/08 09:43:27;;;;;;;45.95;18.77;;;27.80;49.90;;;;;;4973796;28;92549;-88
2023/07/08 09:45:58;;;;;;;60.28;20.67;;;28.00;49.90;;;;;;4970199;28;94217;-93
2023/07/08 09:48:33;;;;;;;87.47;28.15;;;27.90;50.40;;;;;;4971629;28;93402;-90
2023/07/08 09:50:59;;;;;;;92.95;31.55;;;27.90;50.50;;;;;;4966617;28;92079;-92
2023/07/08 09:53:26;;;;;;;86.45;30.63;;;27.90;50.70;;;;;;4973292;28;92419;-89
2023/07/08 09:55:53;;;;;;;92.45;29.42;;;27.80;51.20;;;;;;4970307;28;92540;-88
2023/07/08 09:58:25;;;;;;;81.22;28.88;;;27.80;51.30;;;;;;4971487;28;95780;-90
2023/07/08 10:01:08;;;;;;;83.05;27.73;;;27.80;51.50;;;;;;4971015;28;92343;-90
2023/07/08 10:03:36;;;;;;;68.50;25.25;;;27.90;51.70;;;;;;4972015;28;92100;-89
2023/07/08 10:06:30;;;;;;;61.33;24.85;;;27.90;52.10;;;;;;4969499;28;100106;-88
2023/07/08 10:09:00;;;;;;;60.28;24.48;;;27.80;52.00;;;;;;4974728;28;92914;-90
2023/07/08 10:11:45;;;;;;;58.13;24.02;;;27.90;52.20;;;;;;4973819;28;94117;-89
2023/07/08 10:14:36;;;;;;;57.63;23.05;;;27.90;52.10;;;;;;4990510;28;92489;-94
2023/07/08 10:17:01;;;;;;;60.42;22.60;;;27.90;52.00;;;;;;4973139;28;93330;-90
2023/07/08 10:19:27;;;;;;;49.45;20.73;;;28.00;52.00;;;;;;4974804;28;95472;-90
2023/07/08 10:22:02;;;;;;;57.58;23.10;;;28.00;52.00;;;;;;4976652;28;92884;-88
2023/07/08 10:24:58;;;;;;;65.03;21.95;;;28.00;51.90;;;;;;4975511;28;93197;-92
2023/07/08 10:27:38;;;;;;;57.63;22.80;;;28.00;51.80;;;;;;4978317;28;97351;-90
2023/07/08 10:30:06;;;;;;;50.83;20.73;;;28.10;51.70;;;;;;4961204;28;98152;-87
2023/07/08 10:32:35;;;;;;;;;;;28.00;51.50;;;;;;4970472;28;92071;-89
2023/07/08 10:35:18;;;;;;;57.17;22.48;;;28.00;51.80;;;;;;4972874;28;93041;-90
2023/07/08 10:38:05;;;;;;;48.25;20.15;;;28.10;51.90;;;;;;4960236;28;95606;-95
2023/07/08 10:40:56;;;;;;;47.20;20.30;;;28.10;51.80;;;;;;4960157;28;96130;-90
2023/07/08 10:43:40;;;;;;;47.95;19.73;;;28.10;51.90;;;;;;4958387;28;92806;-92
2023/07/08 10:46:31;;;;;;;44.35;18.35;;;28.10;52.00;;;;;;4958825;28;92560;-89
2023/07/08 10:49:20;;;;;;;48.60;18.63;;;28.10;51.70;;;;;;4958299;28;99586;-87
2023/07/08 10:52:17;;;;;;;51.30;20.83;;;28.00;52.20;;;;;;4952250;28;96719;-95
2023/07/08 10:54:59;;;;;;;52.03;20.67;;;28.10;52.10;;;;;;4971711;28;92701;-93
2023/07/08 10:57:43;;;;;;;44.58;17.95;;;28.00;52.60;;;;;;4963998;28;92168;-94
2023/07/08 11:01:04;;;;;;;43.88;18.75;;;27.90;52.60;;;;;;4965052;28;92748;-87
2023/07/08 11:03:32;;;;;;;44.50;19.55;;;27.90;52.60;;;;;;4947330;28;92721;-88
2023/07/08 11:06:09;;;;;;;41.75;17.83;;;27.90;52.80;;;;;;4968994;28;93819;-89
2023/07/08 11:08:44;;;;;;;37.70;18.05;;;27.90;52.80;;;;;;4965149;28;93009;-87
2023/07/08 11:11:28;;;;;;;43.22;19.58;;;27.90;52.60;;;;;;4967446;28;93090;-88
2023/07/08 11:14:04;;;;;;;40.05;18.50;;;27.80;52.60;;;;;;4963979;28;92957;-88
2023/07/08 11:16:47;;;;;;;45.97;18.38;;;27.90;52.70;;;;;;4964608;28;92552;-89
2023/07/08 11:19:29;;;;;;;43.80;18.70;;;27.80;53.00;;;;;;4956969;28;92429;-90
2023/07/08 11:21:59;;;;;;;36.00;17.90;;;27.80;52.80;;;;;;4959476;28;93038;-87
2023/07/08 11:24:35;;;;;;;39.75;18.73;;;27.80;53.00;;;;;;4949097;28;92490;-88
2023/07/08 11:27:27;;;;;;;38.90;18.60;;;27.90;52.60;;;;;;4964941;28;92541;-89
2023/07/08 11:29:55;;;;;;;46.42;18.38;;;27.80;52.90;;;;;;4969941;28;93106;-88
2023/07/08 11:32:23;;;;;;;39.65;17.90;;;27.70;53.00;;;;;;4954965;28;94256;-87
2023/07/08 11:34:51;;;;;;;37.33;17.80;;;27.80;52.80;;;;;;4957827;28;95671;-87
2023/07/08 11:37:20;;;;;;;31.67;16.33;;;27.90;53.40;;;;;;4954038;28;92986;-87
2023/07/08 11:39:46;;;;;;;38.58;18.10;;;27.80;52.70;;;;;;4972462;28;92145;-92
2023/07/08 11:42:39;;;;;;;34.28;15.02;;;27.90;52.50;;;;;;4963929;28;96119;-90
2023/07/08 11:45:14;;;;;;;40.15;17.55;;;27.90;52.60;;;;;;4955476;28;93103;-87
2023/07/08 11:47:46;;;;;;;31.63;15.70;;;27.90;52.20;;;;;;4967499;28;92642;-92
2023/07/08 11:50:40;;;;;;;38.80;17.02;;;28.00;52.20;;;;;;4968743;28;92306;-91
2023/07/08 11:53:12;;;;;;;38.50;16.55;;;28.00;52.00;;;;;;4959569;28;95835;-89
2023/07/08 11:55:55;;;;;;;37.47;16.33;;;28.00;51.70;;;;;;4960868;28;95971;-89
2023/07/08 11:58:28;;;;;;;37.47;16.20;;;28.00;51.80;;;;;;4959791;28;98847;-90
2023/07/08 12:01:12;;;;;;;33.60;15.80;;;28.00;51.60;;;;;;4960011;28;93106;-88
2023/07/08 12:03:47;;;;;;;33.85;15.55;;;28.00;52.00;;;;;;4959463;28;95909;-90
2023/07/08 12:06:27;;;;;;;36.97;16.30;;;28.00;52.40;;;;;;4970203;28;93951;-92
2023/07/08 12:09:26;;;;;;;35.00;14.90;;;28.00;52.00;;;;;;4976935;28;92492;-87
2023/07/08 12:12:07;;;;;;;34.55;14.20;;;28.10;52.00;;;;;;4971612;28;92321;-88
2023/07/08 12:14:36;;;;;;;34.00;16.33;;;28.20;52.00;;;;;;4970995;28;92795;-92
2023/07/08 12:17:01;;;;;;;31.90;15.73;;;28.30;51.50;;;;;;4959686;28;95610;-93
2023/07/08 12:19:31;;;;;;;33.30;13.85;;;28.30;51.40;;;;;;4964259;28;92883;-91
2023/07/08 12:22:03;;;;;;;27.10;13.80;;;28.30;51.10;;;;;;4966324;28;92486;-94
2023/07/08 12:24:32;;;;;;;33.78;15.45;;;28.40;51.40;;;;;;4983965;28;94059;-93
2023/07/08 12:27:05;;;;;;;25.98;13.45;;;28.50;50.90;;;;;;4975959;28;94132;-92
2023/07/08 12:29:38;;;;;;;30.80;14.85;;;28.50;50.90;;;;;;4970237;28;92543;-93
2023/07/08 12:32:10;;;;;;;26.88;13.82;;;28.50;50.80;;;;;;4967111;28;92567;-95
2023/07/08 12:34:37;;;;;;;34.60;15.00;;;28.40;50.70;;;;;;4964873;28;94099;-94
2023/07/08 12:37:09;;;;;;;24.92;13.85;;;28.50;50.90;;;;;;4982733;28;95264;-92
2023/07/08 12:39:59;;;;;;;30.95;13.90;;;28.40;50.70;;;;;;4952583;28;92360;-94
2023/07/08 12:42:26;;;;;;;27.05;13.05;;;28.50;50.60;;;;;;4969068;28;91770;-94
2023/07/08 12:44:53;;;;;;;28.42;14.75;;;28.40;50.70;;;;;;4970113;28;93080;-93
2023/07/08 12:47:20;;;;;;;25.02;13.43;;;28.50;50.60;;;;;;4970315;28;92624;-92
2023/07/08 12:49:48;;;;;;;26.17;12.63;;;28.50;50.60;;;;;;4970379;28;94044;-93
2023/07/08 12:52:22;;;;;;;29.75;14.23;;;28.40;50.80;;;;;;4968058;28;92523;-93